createdAt,value
2017-08-01T01:03:10.666Z,83.17
2017-08-01T01:03:11.880Z,82.54
2017-08-01T01:03:12.690Z,82.89
2017-08-01T01:03:13.494Z,82.67
2017-08-01T01:03:14.105Z,82.88
2017-08-01T01:03:14.809Z,83.34
2017-08-01T01:05:49.052Z,85.47
2017-08-01T01:05:50.700Z,86.58
2017-08-01T01:05:51.908Z,86.30
2017-08-01T01:09:03.467Z,86.01
2017-08-01T01:09:04.310Z,87.14
2017-08-01T01:09:05.014Z,87.40
2017-08-01T01:11:42.432Z,87.41
2017-08-01T01:11:43.445Z,87.19
2017-08-01T01:11:45.554Z,86.20
2017-08-01T01:14:37.438Z,86.50
2017-08-01T01:14:38.556Z,87.03
2017-08-01T01:14:45.769Z,86.67
2017-08-01T01:17:50.965Z,86.87
2017-08-01T01:17:52.478Z,87.07
2017-08-01T01:17:53.285Z,86.71
2017-08-01T01:20:33.659Z,87.16
2017-08-01T01:20:34.370Z,85.70
2017-08-01T01:20:45.594Z,85.68
2017-08-01T01:23:42.560Z,87.12
2017-08-01T01:26:22.689Z,87.42
2017-08-01T01:26:23.496Z,87.22
2017-08-01T01:26:24.105Z,87.24
2017-08-01T01:26:24.811Z,87.44
2017-08-01T01:26:45.665Z,87.43
2017-08-01T01:29:41.396Z,87.51
2017-08-01T01:33:02.546Z,88.51
2017-08-01T01:33:03.761Z,88.97
2017-08-01T01:33:04.370Z,89.25
2017-08-01T01:33:04.975Z,89.60
2017-08-01T01:33:05.679Z,88.53
2017-08-01T01:35:40.638Z,88.43
2017-08-01T01:35:41.949Z,89.22
2017-08-01T01:35:45.560Z,89.17
2017-08-01T01:39:08.685Z,88.90
2017-08-01T01:39:09.378Z,89.36
2017-08-01T01:39:10.088Z,89.41
2017-08-01T01:41:41.400Z,89.22
2017-08-01T01:45:19.642Z,88.70
2017-08-01T01:45:20.468Z,89.76
2017-08-01T01:45:21.182Z,89.52
2017-08-01T01:45:21.783Z,89.61
2017-08-01T01:45:22.494Z,90.18
2017-08-01T01:45:45.655Z,90.32
2017-08-01T01:46:45.776Z,91.15
2017-08-01T01:47:45.816Z,90.14
2017-08-01T01:51:52.879Z,91.17
2017-08-01T01:51:54.095Z,91.70
2017-08-01T01:52:23.259Z,91.03
2017-08-01T01:52:23.862Z,90.01
2017-08-01T01:52:45.616Z,91.06
2017-08-01T01:53:45.832Z,90.78
2017-08-01T01:56:33.674Z,91.47
2017-08-01T01:56:34.501Z,91.29
2017-08-01T01:56:45.731Z,92.26
2017-08-01T01:59:42.322Z,91.89
2017-08-01T01:59:43.436Z,92.96
2017-08-01T01:59:45.645Z,92.90
2017-08-01T02:00:45.854Z,93.61
2017-08-01T02:01:45.879Z,92.82
2017-08-01T02:02:45.912Z,92.96
2017-08-01T02:03:45.838Z,93.29
2017-08-01T02:04:45.868Z,93.48
2017-08-01T02:05:45.894Z,93.14
2017-08-01T02:06:45.833Z,92.74
2017-08-01T02:07:45.973Z,91.99
2017-08-01T02:08:45.702Z,91.93
2017-08-01T02:09:45.734Z,92.40
2017-08-01T02:10:45.672Z,92.43
2017-08-01T02:11:45.722Z,92.18
2017-08-01T02:12:45.754Z,92.44
2017-08-01T02:13:45.693Z,91.42
2017-08-01T02:14:45.734Z,91.41
2017-08-01T02:15:45.715Z,91.43
2017-08-01T02:16:46.041Z,91.37
2017-08-01T02:17:45.891Z,92.37
2017-08-01T02:18:45.925Z,92.35
2017-08-01T02:19:45.957Z,92.41
2017-08-01T02:20:45.916Z,93.22
2017-08-01T02:21:46.057Z,93.06
2017-08-01T02:22:45.985Z,93.58
2017-08-01T02:23:45.913Z,93.33
2017-08-01T02:24:45.748Z,93.42
2017-08-01T02:25:45.787Z,93.42
2017-08-01T02:26:45.716Z,93.49
2017-08-01T02:27:45.752Z,93.83
2017-08-01T02:28:45.787Z,94.03
2017-08-01T02:29:45.824Z,94.18
2017-08-01T02:30:45.750Z,94.58
2017-08-01T02:31:45.787Z,93.93
2017-08-01T02:32:45.803Z,93.84
2017-08-01T02:33:45.943Z,93.78
2017-08-01T02:34:45.975Z,94.12
2017-08-01T02:35:46.009Z,93.76
2017-08-01T02:36:45.957Z,93.72
2017-08-01T02:37:45.989Z,94.52
2017-08-01T02:38:46.123Z,94.39
2017-08-01T02:39:45.953Z,95.08
2017-08-01T02:40:46.094Z,94.36
2017-08-01T02:41:45.793Z,94.77
2017-08-01T02:42:45.810Z,94.75
2017-08-01T02:43:45.838Z,94.96
2017-08-01T02:44:45.773Z,94.91
2017-08-01T02:45:45.809Z,95.07
2017-08-01T02:46:45.832Z,94.82
2017-08-01T02:47:45.870Z,94.99
2017-08-01T02:48:45.781Z,94.69
2017-08-01T02:49:46.030Z,95.25
2017-08-01T02:50:45.959Z,95.53
2017-08-01T02:51:45.987Z,95.49
2017-08-01T02:52:46.112Z,95.71
2017-08-01T02:53:46.037Z,95.25
2017-08-01T02:54:46.083Z,96.21
2017-08-01T02:55:46.033Z,95.81
2017-08-01T02:56:46.080Z,96.08
2017-08-01T02:57:45.824Z,96.04
2017-08-01T02:58:45.847Z,95.86
2017-08-01T02:59:45.870Z,94.84
2017-08-01T03:00:45.797Z,94.73
2017-08-01T03:01:45.851Z,94.86
2017-08-01T03:02:45.871Z,94.73
2017-08-01T03:03:45.900Z,95.19
2017-08-01T03:04:45.823Z,95.17
2017-08-01T03:05:45.840Z,95.23
2017-08-01T03:06:46.076Z,94.97
2017-08-01T03:07:46.056Z,94.77
2017-08-01T03:08:46.077Z,95.79
2017-08-01T03:09:46.120Z,96.49
2017-08-01T03:10:46.081Z,95.65
2017-08-01T03:11:46.079Z,95.32
2017-08-01T03:12:46.111Z,95.52
2017-08-01T03:13:45.846Z,95.82
2017-08-01T03:14:45.870Z,95.92
2017-08-01T03:15:45.897Z,95.95
2017-08-01T03:16:45.929Z,95.12
2017-08-01T03:17:45.849Z,94.74
2017-08-01T03:18:45.978Z,94.80
2017-08-01T03:19:45.907Z,94.23
2017-08-01T03:20:45.940Z,94.07
2017-08-01T03:21:45.888Z,94.32
2017-08-01T03:22:46.154Z,93.40
2017-08-01T03:23:46.094Z,93.58
2017-08-01T03:24:46.134Z,93.06
2017-08-01T03:25:46.126Z,92.93
2017-08-01T03:26:46.251Z,93.00
2017-08-01T03:27:46.089Z,93.28
2017-08-01T03:28:46.114Z,93.59
2017-08-01T03:29:46.147Z,93.25
2017-08-01T03:30:46.174Z,91.62
2017-08-01T03:31:45.906Z,93.22
2017-08-01T03:32:45.934Z,92.71
2017-08-01T03:33:45.961Z,92.17
2017-08-01T03:34:46.004Z,92.40
2017-08-01T03:35:45.929Z,92.73
2017-08-01T03:36:45.960Z,92.89
2017-08-01T03:37:45.989Z,92.13
2017-08-01T03:38:45.916Z,92.95
2017-08-01T03:39:46.254Z,92.12
2017-08-01T03:40:46.175Z,92.52
2017-08-01T03:41:46.213Z,93.77
2017-08-01T03:42:46.137Z,93.25
2017-08-01T03:43:46.170Z,93.71
2017-08-01T03:44:46.298Z,95.13
2017-08-01T03:45:46.332Z,95.31
2017-08-01T03:46:45.952Z,94.61
2017-08-01T03:47:45.982Z,96.23
2017-08-01T03:48:46.006Z,96.36
2017-08-01T03:49:45.966Z,96.89
2017-08-01T03:50:45.999Z,97.90
2017-08-01T03:51:46.031Z,99.36
2017-08-01T03:52:45.958Z,100.00
2017-08-01T03:53:45.992Z,100.00
2017-08-01T03:54:46.205Z,100.00
2017-08-01T03:55:46.244Z,100.00
2017-08-01T03:58:24.484Z,100.00
2017-08-01T03:58:25.296Z,100.00
2017-08-01T03:58:46.045Z,100.00
2017-08-01T03:59:46.172Z,100.00
2017-08-01T04:00:46.198Z,100.00
2017-08-01T04:01:46.233Z,100.00
2017-08-01T04:02:46.203Z,100.00
2017-08-01T04:03:46.029Z,100.00
2017-08-01T04:04:46.051Z,100.00
2017-08-01T04:05:45.980Z,100.00
2017-08-01T04:06:46.009Z,100.00
2017-08-01T04:07:46.039Z,100.00
2017-08-01T04:08:46.071Z,100.00
2017-08-01T04:09:45.993Z,100.00
2017-08-01T04:10:46.025Z,100.00
2017-08-01T04:11:46.256Z,100.00
2017-08-01T04:12:46.180Z,100.00
2017-08-01T04:13:46.211Z,100.00
2017-08-01T04:14:46.346Z,100.00
2017-08-01T04:15:46.367Z,100.00
2017-08-01T04:16:46.304Z,100.00
2017-08-01T04:17:46.233Z,100.00
2017-08-01T04:18:46.364Z,100.00
2017-08-01T04:19:46.395Z,100.00
2017-08-01T04:20:46.020Z,100.00
2017-08-01T04:21:46.049Z,100.00
2017-08-01T04:22:46.065Z,100.00
2017-08-01T04:23:46.125Z,100.00
2017-08-01T04:24:46.040Z,100.00
2017-08-01T04:25:46.077Z,100.00
2017-08-01T04:26:46.104Z,100.00
2017-08-01T04:27:46.125Z,100.00
2017-08-01T04:28:46.352Z,100.00
2017-08-01T04:29:46.445Z,100.00
2017-08-01T04:30:46.277Z,100.00
2017-08-01T04:31:46.312Z,100.00
2017-08-01T04:32:46.367Z,100.00
2017-08-01T04:33:46.328Z,100.00
2017-08-01T04:34:46.454Z,100.00
2017-08-01T04:35:46.079Z,100.00
2017-08-01T04:36:46.117Z,100.00
2017-08-01T04:37:46.148Z,100.00
2017-08-01T04:38:46.087Z,100.00
2017-08-01T04:39:46.134Z,100.00
2017-08-01T04:40:46.156Z,100.00
2017-08-01T04:41:46.126Z,100.00
2017-08-01T04:42:46.116Z,100.00
2017-08-01T04:43:46.138Z,100.00
2017-08-01T04:44:46.172Z,100.00
2017-08-01T04:45:46.226Z,100.00
2017-08-01T04:46:46.309Z,100.00
2017-08-01T04:47:46.305Z,100.00
2017-08-01T04:48:46.360Z,100.00
2017-08-01T04:49:46.410Z,100.00
2017-08-01T04:50:46.383Z,100.00
2017-08-01T04:51:46.321Z,100.00
2017-08-01T04:52:46.372Z,100.00
2017-08-01T04:53:46.198Z,100.00
2017-08-01T04:54:46.198Z,100.00
2017-08-01T04:55:46.182Z,100.00
2017-08-01T04:56:46.223Z,100.00
2017-08-01T04:57:46.187Z,100.00
2017-08-01T04:58:46.205Z,100.00
2017-08-01T04:59:46.241Z,100.00
2017-08-01T05:00:46.211Z,100.00
2017-08-01T05:01:46.343Z,100.00
2017-08-01T05:02:46.474Z,100.00
2017-08-01T05:03:46.471Z,100.00
2017-08-01T05:04:46.444Z,100.00
2017-08-01T05:05:46.406Z,100.00
2017-08-01T05:06:46.423Z,100.00
2017-08-01T05:07:46.419Z,100.00
2017-08-01T05:08:46.499Z,100.00
2017-08-01T05:09:46.192Z,100.00
2017-08-01T05:10:46.265Z,99.99
2017-08-01T05:11:46.211Z,100.00
2017-08-01T05:12:46.259Z,100.00
2017-08-01T05:13:46.194Z,99.93
2017-08-01T05:14:46.245Z,100.00
2017-08-01T05:15:46.268Z,100.00
2017-08-01T05:16:46.258Z,100.00
2017-08-01T05:17:46.507Z,100.00
2017-08-01T05:18:46.465Z,100.00
2017-08-01T05:19:46.456Z,100.00
2017-08-01T05:20:46.444Z,100.00
2017-08-01T05:21:46.475Z,99.54
2017-08-01T05:22:46.571Z,98.92
2017-08-01T05:23:46.442Z,100.00
2017-08-01T05:24:46.721Z,100.00
2017-08-01T05:25:46.233Z,100.00
2017-08-01T05:26:46.290Z,99.74
2017-08-01T05:27:46.273Z,100.00
2017-08-01T05:28:46.342Z,100.00
2017-08-01T05:29:46.402Z,100.00
2017-08-01T05:30:46.284Z,100.00
2017-08-01T05:31:46.271Z,100.00
2017-08-01T05:32:46.243Z,100.00
2017-08-01T05:33:46.291Z,100.00
2017-08-01T05:34:46.448Z,100.00
2017-08-01T05:35:46.630Z,100.00
2017-08-01T05:36:46.464Z,100.00
2017-08-01T05:37:46.630Z,100.00
2017-08-01T05:38:46.670Z,100.00
2017-08-01T05:39:46.525Z,100.00
2017-08-01T05:40:46.488Z,100.00
2017-08-01T05:41:46.293Z,100.00
2017-08-01T05:42:46.315Z,100.00
2017-08-01T05:43:46.291Z,100.00
2017-08-01T05:44:46.368Z,100.00
2017-08-01T05:45:46.346Z,100.00
2017-08-01T05:46:46.277Z,100.00
2017-08-01T05:47:46.315Z,100.00
2017-08-01T05:48:46.267Z,100.00
2017-08-01T05:49:46.514Z,100.00
2017-08-01T05:50:46.546Z,100.00
2017-08-01T05:51:46.584Z,100.00
2017-08-01T05:52:46.635Z,100.00
2017-08-01T05:53:46.632Z,100.00
2017-08-01T05:54:46.680Z,100.00
2017-08-01T05:55:46.565Z,100.00
2017-08-01T05:56:46.749Z,100.00
2017-08-01T05:57:46.315Z,100.00
2017-08-01T05:58:46.390Z,100.00
2017-08-01T05:59:46.408Z,99.98
2017-08-01T06:00:46.336Z,100.00
2017-08-01T06:01:46.402Z,99.95
2017-08-01T06:02:46.360Z,100.00
2017-08-01T06:03:46.361Z,99.50
2017-08-01T06:04:46.362Z,99.42
2017-08-01T06:05:46.350Z,98.24
2017-08-01T06:06:46.572Z,98.41
2017-08-01T06:07:46.563Z,97.98
2017-08-01T06:08:46.606Z,98.69
2017-08-01T06:09:46.658Z,98.31
2017-08-01T06:10:46.572Z,97.37
2017-08-01T06:11:46.710Z,97.90
2017-08-01T06:12:46.651Z,98.56
2017-08-01T06:13:46.611Z,98.63
2017-08-01T06:14:46.366Z,98.81
2017-08-01T06:15:46.435Z,99.49
2017-08-01T06:16:46.398Z,98.62
2017-08-01T06:17:46.433Z,99.36
2017-08-01T06:18:46.984Z,99.76
2017-08-01T06:19:46.366Z,98.65
2017-08-01T06:20:46.657Z,96.64
2017-08-01T06:21:46.655Z,97.02
2017-08-01T06:22:46.596Z,97.35
2017-08-01T06:23:46.570Z,96.50
2017-08-01T06:24:46.640Z,95.96
2017-08-01T06:25:46.687Z,94.72
2017-08-01T06:26:46.612Z,95.69
2017-08-01T06:27:46.667Z,94.80
2017-08-01T06:28:46.600Z,93.91
2017-08-01T06:29:46.662Z,92.87
2017-08-01T06:30:46.419Z,94.28
2017-08-01T06:31:46.515Z,93.59
2017-08-01T06:32:46.450Z,93.31
2017-08-01T06:33:46.433Z,93.42
2017-08-01T06:34:46.452Z,93.67
2017-08-01T06:35:46.422Z,93.90
2017-08-01T06:36:46.741Z,94.91
2017-08-01T06:37:46.679Z,93.91
2017-08-01T06:38:46.798Z,93.75
2017-08-01T06:39:46.617Z,92.83
2017-08-01T06:40:46.749Z,92.88
2017-08-01T06:41:46.734Z,94.43
2017-08-01T06:42:46.686Z,94.60
2017-08-01T06:43:46.709Z,93.40
2017-08-01T06:44:46.669Z,92.71
2017-08-01T06:45:46.724Z,91.83
2017-08-01T06:46:46.753Z,91.79
2017-08-01T06:47:46.520Z,92.78
2017-08-01T06:48:46.478Z,92.96
2017-08-01T06:49:46.537Z,92.73
2017-08-01T06:50:46.468Z,92.30
2017-08-01T06:51:46.621Z,94.10
2017-08-01T06:52:46.478Z,93.42
2017-08-01T06:53:46.516Z,95.11
2017-08-01T06:54:46.510Z,92.69
2017-08-01T06:55:46.776Z,91.52
2017-08-01T06:56:46.919Z,92.33
2017-08-01T06:57:46.761Z,91.85
2017-08-01T06:58:46.725Z,93.39
2017-08-01T06:59:46.696Z,91.69
2017-08-01T07:00:46.704Z,91.95
2017-08-01T07:01:46.708Z,90.42
2017-08-01T07:02:46.767Z,90.82
2017-08-01T07:03:46.487Z,90.85
2017-08-01T07:04:46.562Z,91.79
2017-08-01T07:05:46.538Z,90.98
2017-08-01T07:06:46.604Z,89.98
2017-08-01T07:07:46.604Z,90.21
2017-08-01T07:08:46.572Z,90.51
2017-08-01T07:09:46.616Z,90.56
2017-08-01T07:10:46.560Z,90.25
2017-08-01T07:11:46.816Z,90.67
2017-08-01T07:12:46.763Z,89.93
2017-08-01T07:13:46.795Z,89.15
2017-08-01T07:14:46.787Z,88.73
2017-08-01T07:15:46.883Z,89.19
2017-08-01T07:16:46.776Z,90.40
2017-08-01T07:17:46.784Z,90.35
2017-08-01T07:18:46.564Z,90.98
2017-08-01T07:19:46.550Z,89.74
2017-08-01T07:20:46.561Z,89.49
2017-08-01T07:21:46.617Z,87.26
2017-08-01T07:22:46.549Z,85.44
2017-08-01T07:23:46.586Z,87.67
2017-08-01T07:24:46.595Z,86.90
2017-08-01T07:25:46.635Z,87.82
2017-08-01T07:26:46.579Z,87.33
2017-08-01T07:27:46.852Z,87.93
2017-08-01T07:28:46.824Z,88.73
2017-08-01T07:29:46.853Z,88.37
2017-08-01T07:30:46.942Z,88.21
2017-08-01T07:31:46.890Z,86.58
2017-08-01T07:32:46.824Z,84.94
2017-08-01T07:33:46.879Z,85.86
2017-08-01T07:34:46.831Z,86.26
2017-08-01T07:35:46.643Z,86.87
2017-08-01T07:36:46.636Z,86.95
2017-08-01T07:37:46.610Z,86.93
2017-08-01T07:38:46.650Z,85.55
2017-08-01T07:39:46.695Z,83.87
2017-08-01T07:40:46.664Z,86.29
2017-08-01T07:41:46.622Z,85.94
2017-08-01T07:42:46.675Z,86.73
2017-08-01T07:43:46.640Z,85.27
2017-08-01T07:44:46.996Z,85.28
2017-08-01T07:45:46.964Z,83.81
2017-08-01T07:46:46.860Z,84.96
2017-08-01T07:47:46.837Z,84.37
2017-08-01T07:48:46.912Z,83.30
2017-08-01T07:49:46.922Z,83.29
2017-08-01T07:50:46.853Z,83.45
2017-08-01T07:51:46.671Z,84.30
2017-08-01T07:52:46.714Z,82.42
2017-08-01T07:53:46.654Z,85.26
2017-08-01T07:54:46.713Z,82.49
2017-08-01T07:55:46.647Z,83.73
2017-08-01T07:56:46.689Z,84.27
2017-08-01T07:57:46.735Z,83.00
2017-08-01T07:58:46.715Z,81.55
2017-08-01T07:59:46.680Z,81.48
2017-08-01T08:00:46.857Z,81.98
2017-08-01T08:01:47.021Z,79.89
2017-08-01T08:02:46.891Z,81.73
2017-08-01T08:03:46.933Z,80.97
2017-08-01T08:04:46.887Z,79.55
2017-08-01T08:05:46.937Z,79.61
2017-08-01T08:06:47.072Z,81.05
2017-08-01T08:07:46.948Z,80.14
2017-08-01T08:08:46.680Z,80.02
2017-08-01T08:09:46.756Z,77.98
2017-08-01T08:10:46.752Z,78.60
2017-08-01T08:11:46.722Z,78.04
2017-08-01T08:12:46.752Z,78.42
2017-08-01T08:13:46.746Z,78.27
2017-08-01T08:14:46.716Z,77.22
2017-08-01T08:15:46.785Z,77.73
2017-08-01T08:16:46.779Z,79.08
2017-08-01T08:17:46.979Z,79.47
2017-08-01T08:18:47.005Z,80.08
2017-08-01T08:19:46.976Z,78.62
2017-08-01T08:20:46.923Z,79.37
2017-08-01T08:21:47.036Z,76.71
2017-08-01T08:22:46.988Z,77.17
2017-08-01T08:23:46.987Z,75.56
2017-08-01T08:24:47.084Z,74.48
2017-08-01T08:25:46.831Z,76.17
2017-08-01T08:26:46.801Z,74.06
2017-08-01T08:27:46.765Z,73.77
2017-08-01T08:28:46.834Z,75.90
2017-08-01T08:29:46.772Z,73.26
2017-08-01T08:30:46.820Z,71.59
2017-08-01T08:31:46.820Z,73.15
2017-08-01T08:32:47.142Z,73.52
2017-08-01T08:33:47.056Z,73.79
2017-08-01T08:34:46.984Z,76.39
2017-08-01T08:35:46.984Z,76.49
2017-08-01T08:36:47.000Z,76.30
2017-08-01T08:37:47.143Z,76.62
2017-08-01T08:38:47.059Z,77.46
2017-08-01T08:39:47.001Z,78.07
2017-08-01T08:40:46.840Z,75.81
2017-08-01T08:41:46.824Z,76.38
2017-08-01T08:42:46.793Z,76.05
2017-08-01T08:43:46.844Z,73.75
2017-08-01T08:44:46.825Z,71.73
2017-08-01T08:45:46.778Z,71.81
2017-08-01T08:46:47.125Z,71.23
2017-08-01T08:47:47.051Z,68.33
2017-08-01T08:48:47.157Z,69.96
2017-08-01T08:49:47.001Z,70.09
2017-08-01T08:50:47.052Z,68.93
2017-08-01T08:51:47.089Z,69.26
2017-08-01T08:52:47.036Z,71.84
2017-08-01T08:53:47.026Z,68.54
2017-08-01T08:54:47.063Z,70.75
2017-08-01T08:55:46.796Z,68.11
2017-08-01T08:56:46.850Z,67.86
2017-08-01T08:57:46.893Z,68.47
2017-08-01T08:58:46.886Z,70.57
2017-08-01T08:59:46.870Z,67.79
2017-08-01T09:00:46.928Z,66.97
2017-08-01T09:01:46.868Z,69.16
2017-08-01T09:02:46.902Z,66.18
2017-08-01T09:03:46.945Z,64.05
2017-08-01T09:04:46.872Z,63.18
2017-08-01T09:05:47.441Z,60.35
2017-08-01T09:06:47.105Z,62.60
2017-08-01T09:07:47.085Z,63.32
2017-08-01T09:08:47.093Z,62.42
2017-08-01T09:09:47.113Z,62.64
2017-08-01T09:10:47.050Z,63.58
2017-08-01T09:11:47.236Z,62.55
2017-08-01T09:12:46.908Z,62.86
2017-08-01T09:13:46.919Z,64.37
2017-08-01T09:14:46.871Z,61.84
2017-08-01T09:15:46.932Z,64.62
2017-08-01T09:16:46.944Z,63.32
2017-08-01T09:17:46.994Z,61.84
2017-08-01T09:18:46.925Z,63.04
2017-08-01T09:19:46.921Z,61.66
2017-08-01T09:20:47.150Z,64.77
2017-08-01T09:21:47.223Z,65.09
2017-08-01T09:22:47.199Z,60.42
2017-08-01T09:23:47.134Z,62.74
2017-08-01T09:24:47.422Z,58.43
2017-08-01T09:25:47.121Z,63.67
2017-08-01T09:26:47.237Z,62.87
2017-08-01T09:27:47.267Z,60.77
2017-08-01T09:28:47.153Z,60.06
2017-08-01T09:29:47.009Z,60.43
2017-08-01T09:30:46.947Z,59.84
2017-08-01T09:31:47.016Z,60.02
2017-08-01T09:32:46.960Z,61.17
2017-08-01T09:33:46.958Z,57.28
2017-08-01T09:34:46.953Z,58.59
2017-08-01T09:35:46.977Z,58.66
2017-08-01T09:36:46.970Z,56.50
2017-08-01T09:37:47.126Z,56.55
2017-08-01T09:38:47.208Z,57.83
2017-08-01T09:39:47.171Z,56.63
2017-08-01T09:40:47.276Z,55.92
2017-08-01T09:41:47.257Z,56.21
2017-08-01T09:42:47.262Z,56.71
2017-08-01T09:43:47.190Z,55.76
2017-08-01T09:44:47.237Z,56.31
2017-08-01T09:45:46.955Z,54.94
2017-08-01T09:46:47.044Z,53.05
2017-08-01T09:47:47.019Z,52.67
2017-08-01T09:48:47.001Z,53.21
2017-08-01T09:49:47.049Z,53.72
2017-08-01T09:50:46.981Z,53.25
2017-08-01T09:51:47.043Z,51.98
2017-08-01T09:52:47.033Z,53.74
2017-08-01T09:53:47.300Z,53.34
2017-08-01T09:54:47.194Z,53.03
2017-08-01T09:55:47.223Z,51.08
2017-08-01T09:56:47.326Z,53.29
2017-08-01T09:57:47.485Z,51.06
2017-08-01T09:58:47.371Z,50.66
2017-08-01T09:59:47.263Z,52.74
2017-08-01T10:00:47.253Z,51.28
2017-08-01T10:01:47.261Z,51.56
2017-08-01T10:02:47.047Z,53.06
2017-08-01T10:03:47.119Z,52.32
2017-08-01T10:04:47.082Z,52.17
2017-08-01T10:05:47.056Z,49.56
2017-08-01T10:06:47.101Z,50.38
2017-08-01T10:07:47.111Z,50.54
2017-08-01T10:08:47.079Z,50.22
2017-08-01T10:09:47.315Z,50.27
2017-08-01T10:10:47.288Z,48.73
2017-08-01T10:11:47.286Z,50.10
2017-08-01T10:12:47.268Z,48.45
2017-08-01T10:13:47.347Z,49.39
2017-08-01T10:14:47.460Z,51.10
2017-08-01T10:15:47.462Z,52.10
2017-08-01T10:16:47.304Z,50.25
2017-08-01T10:17:47.326Z,50.08
2017-08-01T10:18:47.099Z,50.58
2017-08-01T10:19:47.062Z,53.60
2017-08-01T10:20:47.143Z,52.20
2017-08-01T10:21:47.230Z,50.47
2017-08-01T10:22:47.118Z,50.64
2017-08-01T10:23:47.118Z,50.59
2017-08-01T10:24:47.114Z,50.78
2017-08-01T10:25:47.131Z,49.03
2017-08-01T10:26:47.132Z,49.60
2017-08-01T10:27:47.378Z,50.89
2017-08-01T10:28:47.355Z,50.04
2017-08-01T10:29:47.336Z,49.09
2017-08-01T10:30:47.336Z,49.58
2017-08-01T10:31:47.400Z,50.41
2017-08-01T10:32:47.303Z,50.01
2017-08-01T10:33:47.341Z,50.30
2017-08-01T10:34:47.118Z,47.66
2017-08-01T10:35:47.181Z,49.11
2017-08-01T10:36:47.200Z,50.92
2017-08-01T10:37:47.180Z,50.54
2017-08-01T10:38:47.107Z,51.51
2017-08-01T10:39:47.171Z,49.28
2017-08-01T10:40:47.340Z,48.33
2017-08-01T10:41:47.195Z,49.19
2017-08-01T10:42:47.149Z,50.57
2017-08-01T10:43:47.389Z,47.27
2017-08-01T10:44:47.484Z,45.87
2017-08-01T10:45:47.330Z,46.29
2017-08-01T10:46:47.399Z,46.63
2017-08-01T10:47:47.461Z,45.67
2017-08-01T10:48:47.394Z,45.42
2017-08-01T10:49:47.375Z,45.59
2017-08-01T10:50:47.436Z,46.99
2017-08-01T10:51:47.186Z,45.97
2017-08-01T10:52:47.221Z,45.23
2017-08-01T10:53:47.208Z,47.10
2017-08-01T10:54:47.179Z,47.47
2017-08-01T10:55:47.229Z,48.22
2017-08-01T10:56:47.197Z,48.73
2017-08-01T10:57:47.204Z,45.55
2017-08-01T10:58:47.660Z,46.64
2017-08-01T10:59:47.294Z,48.84
2017-08-01T11:00:47.180Z,45.25
2017-08-01T11:01:47.512Z,47.20
2017-08-01T11:02:47.433Z,46.34
2017-08-01T11:03:47.542Z,46.24
2017-08-01T11:04:47.481Z,45.29
2017-08-01T11:05:47.483Z,45.47
2017-08-01T11:06:47.467Z,46.95
2017-08-01T11:07:47.266Z,46.56
2017-08-01T11:08:47.242Z,40.78
2017-08-01T11:09:47.229Z,44.96
2017-08-01T11:10:47.211Z,45.56
2017-08-01T11:11:47.223Z,43.99
2017-08-01T11:12:47.270Z,41.50
2017-08-01T11:13:47.237Z,42.19
2017-08-01T11:14:47.244Z,41.41
2017-08-01T11:15:47.497Z,42.69
2017-08-01T11:16:47.436Z,44.84
2017-08-01T11:17:47.531Z,44.27
2017-08-01T11:18:47.459Z,43.16
2017-08-01T11:19:47.480Z,39.10
2017-08-01T11:20:47.441Z,33.00
2017-08-01T11:21:47.842Z,37.37
2017-08-01T11:22:47.491Z,33.78
2017-08-01T11:23:47.335Z,34.08
2017-08-01T11:24:47.239Z,37.39
2017-08-01T11:25:47.272Z,38.17
2017-08-01T11:26:47.266Z,39.63
2017-08-01T11:27:47.319Z,39.33
2017-08-01T11:28:47.345Z,40.37
2017-08-01T11:29:47.320Z,40.85
2017-08-01T11:30:47.315Z,39.95
2017-08-01T11:31:47.327Z,40.81
2017-08-01T11:32:47.510Z,40.76
2017-08-01T11:33:47.507Z,41.31
2017-08-01T11:34:47.643Z,43.30
2017-08-01T11:35:47.496Z,43.43
2017-08-01T11:36:47.540Z,44.98
2017-08-01T11:37:49.304Z,45.17
2017-08-01T11:38:47.375Z,42.78
2017-08-01T11:39:47.714Z,44.26
2017-08-01T11:40:47.400Z,45.01
2017-08-01T11:41:47.419Z,46.51
2017-08-01T11:42:47.353Z,46.30
2017-08-01T11:43:47.283Z,48.29
2017-08-01T11:44:47.366Z,47.25
2017-08-01T11:45:47.394Z,46.33
2017-08-01T11:46:47.324Z,46.48
2017-08-01T11:47:47.581Z,46.08
2017-08-01T11:48:47.575Z,47.91
2017-08-01T11:49:47.529Z,47.36
2017-08-01T11:50:47.624Z,48.12
2017-08-01T11:51:47.886Z,46.73
2017-08-01T11:52:47.615Z,46.40
2017-08-01T11:53:47.548Z,45.38
2017-08-01T11:54:47.615Z,43.70
2017-08-01T11:55:47.627Z,45.37
2017-08-01T11:56:47.686Z,46.86
2017-08-01T11:57:47.363Z,47.13
2017-08-01T11:58:47.432Z,46.32
2017-08-01T11:59:47.471Z,46.95
2017-08-01T12:00:47.424Z,47.84
2017-08-01T12:01:47.400Z,49.64
2017-08-01T12:02:47.382Z,46.95
2017-08-01T12:03:47.572Z,46.47
2017-08-01T12:04:47.586Z,45.71
2017-08-01T12:05:47.558Z,48.11
2017-08-01T12:06:47.660Z,49.41
2017-08-01T12:07:47.696Z,45.10
2017-08-01T12:08:47.612Z,44.13
2017-08-01T12:09:47.728Z,45.54
2017-08-01T12:10:47.678Z,46.59
2017-08-01T12:11:47.987Z,47.29
2017-08-01T12:12:47.436Z,45.53
2017-08-01T12:13:47.452Z,44.92
2017-08-01T12:14:47.475Z,45.32
2017-08-01T12:15:47.436Z,42.56
2017-08-01T12:16:47.452Z,46.40
2017-08-01T12:17:47.452Z,46.46
2017-08-01T12:18:47.434Z,45.55
2017-08-01T12:19:47.998Z,41.94
2017-08-01T12:20:47.444Z,44.39
2017-08-01T12:21:47.902Z,46.64
2017-08-01T12:22:47.680Z,46.56
2017-08-01T12:23:48.008Z,46.98
2017-08-01T12:24:47.718Z,44.84
2017-08-01T12:25:47.817Z,46.66
2017-08-01T12:26:47.821Z,47.58
2017-08-01T12:27:47.846Z,44.96
2017-08-01T12:28:47.421Z,45.56
2017-08-01T12:29:47.474Z,46.97
2017-08-01T12:30:47.494Z,43.49
2017-08-01T12:31:47.499Z,44.34
2017-08-01T12:32:47.441Z,44.30
2017-08-01T12:33:47.463Z,46.23
2017-08-01T12:34:47.446Z,46.29
2017-08-01T12:35:47.888Z,46.19
2017-08-01T12:36:47.764Z,47.20
2017-08-01T12:37:47.898Z,46.69
2017-08-01T12:38:47.669Z,46.84
2017-08-01T12:39:47.814Z,45.72
2017-08-01T12:40:47.703Z,46.17
2017-08-01T12:41:47.832Z,45.71
2017-08-01T12:42:47.758Z,46.68
2017-08-01T12:43:47.467Z,47.17
2017-08-01T12:44:47.479Z,47.83
2017-08-01T12:45:47.513Z,46.19
2017-08-01T12:46:47.589Z,46.82
2017-08-01T12:47:47.555Z,45.87
2017-08-01T12:48:47.513Z,45.02
2017-08-01T12:49:47.516Z,46.44
2017-08-01T12:50:47.515Z,45.21
2017-08-01T12:51:47.981Z,46.92
2017-08-01T12:52:47.863Z,45.23
2017-08-01T12:53:48.072Z,45.64
2017-08-01T12:54:47.832Z,44.73
2017-08-01T12:55:47.983Z,47.35
2017-08-01T12:56:47.800Z,45.29
2017-08-01T12:57:48.116Z,44.68
2017-08-01T12:58:47.791Z,43.17
2017-08-01T12:59:47.962Z,45.06
2017-08-01T13:00:47.525Z,45.37
2017-08-01T13:01:47.542Z,44.45
2017-08-01T13:02:47.570Z,45.74
2017-08-01T13:03:47.576Z,45.93
2017-08-01T13:04:47.572Z,44.82
2017-08-01T13:05:47.571Z,43.96
2017-08-01T13:06:47.595Z,43.70
2017-08-01T13:07:47.845Z,45.35
2017-08-01T13:08:47.561Z,44.76
2017-08-01T13:09:48.227Z,44.17
2017-08-01T13:10:47.570Z,45.85
2017-08-01T13:11:48.013Z,44.83
2017-08-01T13:12:47.773Z,47.26
2017-08-01T13:13:48.025Z,47.14
2017-08-01T13:14:47.788Z,45.63
2017-08-01T13:15:48.024Z,45.19
2017-08-01T13:16:47.588Z,47.69
2017-08-01T13:17:47.676Z,47.77
2017-08-01T13:18:47.606Z,47.87
2017-08-01T13:19:47.665Z,47.52
2017-08-01T13:20:47.605Z,45.17
2017-08-01T13:21:47.673Z,47.08
2017-08-01T13:22:47.638Z,46.98
2017-08-01T13:23:47.710Z,45.64
2017-08-01T13:24:47.665Z,46.14
2017-08-01T13:25:48.114Z,46.89
2017-08-01T13:26:47.914Z,46.64
2017-08-01T13:27:48.075Z,47.10
2017-08-01T13:28:47.870Z,46.09
2017-08-01T13:29:48.160Z,46.14
2017-08-01T13:30:47.806Z,46.22
2017-08-01T13:31:48.160Z,46.93
2017-08-01T13:32:47.880Z,46.89
2017-08-01T13:33:48.184Z,45.52
2017-08-01T13:34:47.622Z,46.13
2017-08-01T13:35:47.809Z,46.37
2017-08-01T13:36:47.647Z,49.60
2017-08-01T13:37:47.888Z,49.25
2017-08-01T13:38:47.696Z,44.48
2017-08-01T13:39:47.853Z,48.35
2017-08-01T13:40:47.653Z,45.92
2017-08-01T13:41:48.198Z,49.38
2017-08-01T13:42:47.898Z,47.43
2017-08-01T13:43:48.047Z,46.71
2017-08-01T13:44:47.824Z,46.46
2017-08-01T13:45:48.112Z,48.82